Главная страница
METAR-TAF:

METAR-TAF

Аэропорты :

Николаев, Украина

широта: 47-03-29N, долгота: 031-55-15E, высота над уровнем моря: 56 м

Текущие метеонаблюдения

Эта сводка был подготовлена 1 час и 4 минут назад, в 16:00 UTC
Ветер 8 Узел от восточно-северо-восточный
Температура 24°C
Влажность 34%
Давление 1013 hPa
Видимость 10 км и более
Нет облачности ниже 1500 м, и нет кучево-дождевой облачности

METAR: UKON 191600Z 06004MPS CAVOK 24/07 Q1013 NOSIG

Время: 20:04 (17:04 UTC)

Прогноз

Эта сводка был подготовлена 3 часа и 2 минут назад, в 14:02 UTC
Прогноз действительный с 19-го 15 UTC до 19-го 24 UTC
Ветер 12 Узел от восточно-северо-восточный с порывами до 23 Узел
Видимость 10 км и более
Отдельные облака на высоте 3000 фута, Кучево-дождевые.

TAF: UKON 191402Z 1915/1924 07006G12MPS 9999 SCT030CB TX27/1915Z TN17/1924Z

Метеонаблюдения и прогнозы для более 4000 аэропортов (сводки METAR и TAF).

Имеющиеся станции представлены на карте желтыми и красными точками.

Чтобы увидеть название станции, наведите на нее мышь.

Затем щелкните, чтобы увидеть метеонаблюдения и метеопрогнозы.

Управление картой: чтобы увеличить масштаб, щелкните зеленые кнопки с черным крестиком; чтобы уменьшить масштаб, щелкните зеленую кнопку с тире; для просмотра соседних карт щелкайте зеленые стрелки.


METAR-TAF: